createdAt,value
2022-12-01T00:01:11.824Z,2.38
2022-12-01T00:03:38.891Z,2.40
2022-12-01T00:06:06.999Z,2.41
2022-12-01T00:08:34.800Z,2.38
2022-12-01T00:11:10.231Z,2.42
2022-12-01T00:13:37.314Z,2.37
2022-12-01T00:16:13.176Z,2.39
2022-12-01T00:18:39.883Z,2.41
2022-12-01T00:21:06.809Z,2.45
2022-12-01T00:23:33.458Z,2.43
2022-12-01T00:26:06.383Z,2.39
2022-12-01T00:28:32.979Z,2.44
2022-12-01T00:31:00.274Z,2.45
2022-12-01T00:33:26.928Z,2.44
2022-12-01T00:35:59.972Z,2.41
2022-12-01T00:38:26.933Z,2.43
2022-12-01T00:40:53.595Z,2.43
2022-12-01T00:43:20.486Z,2.46
2022-12-01T00:45:47.423Z,2.43
2022-12-01T00:48:14.069Z,2.45
2022-12-01T00:50:41.215Z,2.48
2022-12-01T00:53:07.953Z,2.50
2022-12-01T00:55:34.652Z,2.50
2022-12-01T00:58:01.310Z,2.45
2022-12-01T01:00:28.057Z,2.47
2022-12-01T01:02:54.789Z,2.52
2022-12-01T01:05:21.471Z,2.55
2022-12-01T01:07:48.109Z,2.54
2022-12-01T01:10:14.771Z,2.50
2022-12-01T01:12:41.390Z,2.54
2022-12-01T01:15:08.458Z,2.53
2022-12-01T01:17:35.055Z,2.57
2022-12-01T01:20:01.787Z,2.51
2022-12-01T01:22:28.463Z,2.52
2022-12-01T01:24:55.034Z,2.54
2022-12-01T01:27:21.602Z,2.52
2022-12-01T01:29:48.465Z,2.54
2022-12-01T01:32:15.250Z,2.58
2022-12-01T01:34:41.866Z,2.53
2022-12-01T01:37:08.477Z,2.54
2022-12-01T01:39:35.030Z,2.53
2022-12-01T01:42:01.578Z,2.55
2022-12-01T01:44:47.270Z,2.57
2022-12-01T01:47:15.259Z,2.59
2022-12-01T01:49:43.021Z,2.59
2022-12-01T01:52:09.989Z,2.56
2022-12-01T01:54:44.513Z,2.55
2022-12-01T01:57:15.136Z,2.56
2022-12-01T01:59:50.465Z,2.54
2022-12-01T02:02:17.660Z,2.55
2022-12-01T02:04:52.548Z,2.59
2022-12-01T02:07:20.038Z,2.63
2022-12-01T02:09:47.175Z,2.56
2022-12-01T02:12:17.078Z,2.61
2022-12-01T02:15:08.712Z,2.61
2022-12-01T02:17:55.700Z,2.60
2022-12-01T02:20:52.423Z,2.58
2022-12-01T02:24:04.848Z,2.63
2022-12-01T02:27:03.740Z,2.66
2022-12-01T02:29:52.158Z,2.65
2022-12-01T02:32:43.471Z,2.68
2022-12-01T02:35:22.633Z,2.66
2022-12-01T02:38:07.289Z,2.66
2022-12-01T02:40:47.416Z,2.61
2022-12-01T02:43:30.797Z,2.65
2022-12-01T02:46:12.294Z,2.62
2022-12-01T02:48:43.033Z,2.61
2022-12-01T02:51:14.712Z,2.60
2022-12-01T02:53:41.629Z,2.60
2022-12-01T02:56:11.683Z,2.60
2022-12-01T02:58:38.555Z,2.62
2022-12-01T03:01:45.024Z,2.68
2022-12-01T03:04:20.627Z,2.58
2022-12-01T03:07:08.233Z,2.61
2022-12-01T03:09:42.723Z,2.65
2022-12-01T03:12:31.142Z,2.64
2022-12-01T03:14:57.782Z,2.69
2022-12-01T03:17:34.545Z,2.67
2022-12-01T03:20:13.050Z,2.66
2022-12-01T03:22:46.744Z,2.67
2022-12-01T03:25:15.232Z,2.65
2022-12-01T03:28:06.655Z,2.69
2022-12-01T03:30:36.687Z,2.69
2022-12-01T03:33:09.740Z,2.70
2022-12-01T03:35:47.062Z,2.72
2022-12-01T03:38:24.483Z,2.74
2022-12-01T03:40:55.018Z,2.69
2022-12-01T03:43:28.398Z,2.72
2022-12-01T03:46:17.955Z,2.71
2022-12-01T03:48:44.634Z,2.72
2022-12-01T03:51:44.576Z,2.70
2022-12-01T03:54:26.190Z,2.67
2022-12-01T03:56:57.834Z,2.74
2022-12-01T03:59:26.521Z,2.71
2022-12-01T04:01:53.342Z,2.73
2022-12-01T04:04:20.141Z,2.74
2022-12-01T04:06:50.295Z,2.77
2022-12-01T04:09:17.143Z,2.71
2022-12-01T04:12:02.119Z,2.74
2022-12-01T04:14:30.166Z,2.71
2022-12-01T04:16:56.765Z,2.70
2022-12-01T04:19:23.373Z,2.72
2022-12-01T04:21:50.061Z,2.71
2022-12-01T04:24:16.802Z,2.72
2022-12-01T04:26:44.483Z,2.70
2022-12-01T04:29:12.102Z,2.68
2022-12-01T04:31:39.051Z,2.69
2022-12-01T04:34:06.460Z,2.59
2022-12-01T04:36:34.600Z,2.55
2022-12-01T04:39:01.794Z,2.59
2022-12-01T04:41:28.468Z,2.56
2022-12-01T04:43:56.105Z,2.54
2022-12-01T04:46:23.908Z,2.59
2022-12-01T04:48:50.857Z,2.56
2022-12-01T04:51:17.883Z,2.54
2022-12-01T04:53:44.668Z,2.54
2022-12-01T04:56:11.477Z,2.53
2022-12-01T04:58:38.945Z,2.53
2022-12-01T05:01:11.940Z,2.52
2022-12-01T05:03:40.768Z,2.52
2022-12-01T05:06:10.148Z,2.52
2022-12-01T05:08:36.848Z,2.51
2022-12-01T05:11:05.037Z,2.53
2022-12-01T05:13:31.644Z,2.59
2022-12-01T05:16:06.738Z,2.57
2022-12-01T05:18:34.255Z,2.60
2022-12-01T05:21:01.260Z,2.61
2022-12-01T05:23:30.600Z,2.57
2022-12-01T05:25:57.364Z,2.59
2022-12-01T05:28:25.692Z,2.59
2022-12-01T05:30:54.201Z,2.58
2022-12-01T05:33:22.939Z,2.55
2022-12-01T05:35:50.312Z,2.56
2022-12-01T05:38:17.830Z,2.59
2022-12-01T05:40:53.411Z,2.55
2022-12-01T05:43:28.581Z,2.55
2022-12-01T05:45:56.009Z,2.56
2022-12-01T05:48:23.563Z,2.54
2022-12-01T05:50:50.130Z,2.57
2022-12-01T05:53:17.562Z,2.60
2022-12-01T05:55:44.432Z,2.55
2022-12-01T05:58:11.834Z,2.52
2022-12-01T06:00:45.312Z,2.53
2022-12-01T06:03:12.233Z,2.50
2022-12-01T06:05:38.884Z,2.47
2022-12-01T06:08:05.612Z,2.65
2022-12-01T06:10:32.388Z,2.73
2022-12-01T06:12:59.024Z,2.54
2022-12-01T06:15:26.252Z,2.47
2022-12-01T06:17:53.015Z,2.50
2022-12-01T06:20:19.664Z,2.52
2022-12-01T06:22:46.308Z,2.49
2022-12-01T06:25:12.877Z,2.46
2022-12-01T06:27:39.531Z,2.51
2022-12-01T06:30:07.060Z,2.48
2022-12-01T06:32:33.755Z,2.46
2022-12-01T06:35:00.429Z,2.51
2022-12-01T06:37:28.307Z,2.48
2022-12-01T06:39:55.061Z,2.42
2022-12-01T06:42:21.965Z,2.43
2022-12-01T06:44:50.004Z,2.41
2022-12-01T06:47:16.688Z,2.42
2022-12-01T06:49:44.089Z,2.44
2022-12-01T06:52:10.740Z,2.43
2022-12-01T06:54:37.691Z,2.45
2022-12-01T06:57:05.014Z,2.38
2022-12-01T06:59:31.995Z,2.38
2022-12-01T07:01:59.157Z,2.42
2022-12-01T07:04:25.974Z,2.46
2022-12-01T07:06:52.527Z,2.45
2022-12-01T07:09:19.294Z,2.36
2022-12-01T07:11:45.990Z,2.42
2022-12-01T07:14:24.535Z,2.38
2022-12-01T07:16:51.360Z,2.44
2022-12-01T07:19:18.325Z,2.39
2022-12-01T07:21:45.090Z,2.45
2022-12-01T07:24:14.503Z,2.39
2022-12-01T07:26:42.123Z,2.42
2022-12-01T07:29:11.774Z,2.41
2022-12-01T07:31:38.973Z,2.44
2022-12-01T07:34:06.652Z,2.42
2022-12-01T07:36:33.343Z,2.37
2022-12-01T07:39:00.561Z,2.34
2022-12-01T07:41:27.178Z,2.36
2022-12-01T07:43:55.369Z,2.31
2022-12-01T07:46:25.117Z,2.31
2022-12-01T07:48:53.838Z,2.32
2022-12-01T07:51:21.712Z,2.25
2022-12-01T07:53:49.646Z,2.29
2022-12-01T07:56:17.251Z,2.34
2022-12-01T07:58:44.109Z,2.38
2022-12-01T08:01:14.912Z,2.41
2022-12-01T08:03:42.469Z,2.39
2022-12-01T08:06:10.279Z,2.47
2022-12-01T08:08:39.191Z,2.48
2022-12-01T08:11:09.772Z,2.41
2022-12-01T08:13:36.532Z,2.45
2022-12-01T08:16:05.300Z,2.42
2022-12-01T08:18:35.284Z,2.43
2022-12-01T08:21:02.188Z,2.43
2022-12-01T08:23:28.960Z,2.43
2022-12-01T08:25:57.536Z,2.46
2022-12-01T08:28:24.303Z,2.46
2022-12-01T08:30:50.958Z,2.52
2022-12-01T08:33:17.649Z,2.49
2022-12-01T08:35:44.248Z,2.49
2022-12-01T08:38:11.237Z,2.52
2022-12-01T08:40:37.942Z,2.53
2022-12-01T08:43:05.388Z,2.56
2022-12-01T08:45:32.052Z,2.50
2022-12-01T08:47:59.921Z,2.59
2022-12-01T08:50:27.746Z,2.53
2022-12-01T08:52:54.666Z,2.56
2022-12-01T08:55:22.452Z,2.58
2022-12-01T08:57:49.081Z,2.58
2022-12-01T09:00:16.682Z,2.58
2022-12-01T09:02:43.329Z,2.59
2022-12-01T09:05:10.500Z,2.69
2022-12-01T09:07:37.169Z,2.62
2022-12-01T09:10:04.938Z,2.68
2022-12-01T09:12:31.690Z,2.66
2022-12-01T09:14:58.748Z,2.71
2022-12-01T09:17:25.361Z,2.76
2022-12-01T09:19:52.408Z,2.86
2022-12-01T09:22:19.215Z,2.96
2022-12-01T09:24:45.913Z,2.90
2022-12-01T09:27:13.271Z,2.97
2022-12-01T09:29:39.958Z,3.00
2022-12-01T09:32:06.523Z,3.07
2022-12-01T09:34:33.137Z,3.11
2022-12-01T09:36:59.904Z,3.12
2022-12-01T09:39:26.645Z,3.05
2022-12-01T09:42:08.756Z,3.13
2022-12-01T09:44:41.371Z,3.09
2022-12-01T09:47:19.289Z,3.11
2022-12-01T09:50:06.981Z,3.13
2022-12-01T09:52:40.823Z,3.04
2022-12-01T09:55:13.794Z,3.02
2022-12-01T09:57:41.569Z,3.03
2022-12-01T10:00:16.745Z,3.01
2022-12-01T10:03:01.644Z,3.00
2022-12-01T10:05:35.443Z,3.01
2022-12-01T10:08:06.018Z,3.12
2022-12-01T10:10:39.726Z,3.19
2022-12-01T10:13:26.974Z,3.22
2022-12-01T10:16:18.511Z,3.24
2022-12-01T10:19:01.779Z,3.39
2022-12-01T10:21:35.535Z,3.37
2022-12-01T10:24:33.933Z,3.36
2022-12-01T10:27:09.464Z,3.31
2022-12-01T10:29:45.044Z,3.24
2022-12-01T10:32:20.344Z,3.30
2022-12-01T10:34:48.394Z,3.27
2022-12-01T10:37:27.709Z,3.22
2022-12-01T10:39:55.688Z,3.17
2022-12-01T10:42:37.503Z,3.16
2022-12-01T10:45:07.927Z,3.17
2022-12-01T10:47:34.619Z,3.18
2022-12-01T10:50:03.909Z,3.25
2022-12-01T10:52:30.446Z,3.28
2022-12-01T10:54:57.075Z,3.33
2022-12-01T10:57:24.015Z,3.24
2022-12-01T11:00:08.752Z,3.32
2022-12-01T11:02:35.701Z,3.18
2022-12-01T11:05:06.090Z,3.18
2022-12-01T11:07:36.130Z,3.18
2022-12-01T11:10:02.775Z,3.12
2022-12-01T11:12:29.774Z,3.18
2022-12-01T11:14:58.419Z,3.22
2022-12-01T11:17:41.405Z,3.29
2022-12-01T11:20:40.991Z,3.27
2022-12-01T11:23:24.542Z,3.28
2022-12-01T11:25:59.469Z,3.38
2022-12-01T11:28:27.168Z,3.43
2022-12-01T11:31:02.744Z,3.26
2022-12-01T11:33:30.993Z,3.24
2022-12-01T11:35:58.094Z,3.22
2022-12-01T11:38:34.020Z,3.28
2022-12-01T11:41:00.865Z,3.51
2022-12-01T11:43:36.616Z,3.60
2022-12-01T11:46:07.880Z,3.59
2022-12-01T11:48:36.451Z,3.79
2022-12-01T11:51:24.434Z,3.84
2022-12-01T11:54:06.125Z,3.98
2022-12-01T11:56:32.706Z,3.87
2022-12-01T11:59:03.400Z,3.84
2022-12-01T12:01:41.463Z,3.71
2022-12-01T12:04:49.793Z,3.69
2022-12-01T12:07:47.829Z,3.65
2022-12-01T12:10:32.989Z,3.55
2022-12-01T12:13:15.222Z,3.50
2022-12-01T12:16:05.637Z,3.55
2022-12-01T12:19:06.577Z,3.50
2022-12-01T12:22:00.879Z,3.54
2022-12-01T12:24:53.146Z,3.63
2022-12-01T12:27:51.427Z,3.63
2022-12-01T12:30:26.285Z,3.49
2022-12-01T12:33:17.187Z,3.42
2022-12-01T12:36:02.704Z,3.42
2022-12-01T12:38:52.166Z,3.40
2022-12-01T12:41:29.759Z,3.39
2022-12-01T12:44:08.245Z,3.43
2022-12-01T12:46:53.927Z,3.45
2022-12-01T12:49:31.984Z,3.44
2022-12-01T12:52:08.418Z,3.44
2022-12-01T12:54:38.673Z,3.51
2022-12-01T12:57:19.448Z,3.54
2022-12-01T12:59:54.954Z,3.59
2022-12-01T13:02:33.062Z,3.64
2022-12-01T13:05:05.908Z,3.74
2022-12-01T13:07:35.148Z,3.72
2022-12-01T13:10:37.177Z,3.56
2022-12-01T13:13:18.218Z,3.42
2022-12-01T13:15:46.809Z,3.42
2022-12-01T13:18:28.417Z,3.48
2022-12-01T13:20:57.497Z,3.45
2022-12-01T13:23:24.763Z,3.41
2022-12-01T13:25:55.141Z,3.31
2022-12-01T13:28:35.200Z,3.34
2022-12-01T13:31:07.447Z,3.33
2022-12-01T13:33:36.340Z,3.34
2022-12-01T13:39:06.680Z,3.32
2022-12-01T13:41:38.629Z,3.44
2022-12-01T13:44:39.327Z,3.38
2022-12-01T13:47:08.970Z,3.45
2022-12-01T13:49:40.533Z,3.39
2022-12-01T13:52:22.458Z,3.24
2022-12-01T13:55:13.423Z,3.26
2022-12-01T13:58:14.239Z,3.27
2022-12-01T14:00:41.784Z,3.27
2022-12-01T14:03:19.245Z,3.25
2022-12-01T14:05:57.280Z,3.20
2022-12-01T14:08:44.222Z,3.23
2022-12-01T14:11:23.730Z,3.15
2022-12-01T14:14:00.030Z,3.10
2022-12-01T14:16:52.976Z,3.06
2022-12-01T14:19:28.287Z,3.03
2022-12-01T14:21:55.051Z,3.00
2022-12-01T14:24:31.885Z,2.96
2022-12-01T14:26:58.516Z,2.95
2022-12-01T14:29:33.834Z,2.88
2022-12-01T14:32:00.367Z,2.92
2022-12-01T14:34:31.517Z,2.95
2022-12-01T14:37:13.104Z,2.87
2022-12-01T14:40:13.074Z,2.87
2022-12-01T14:43:09.404Z,2.82
2022-12-01T14:45:45.376Z,2.72
2022-12-01T14:48:18.516Z,2.67
2022-12-01T14:50:51.390Z,2.66
2022-12-01T14:53:36.314Z,2.64
2022-12-01T14:56:12.896Z,2.66
2022-12-01T14:58:50.394Z,2.65
2022-12-01T15:01:17.094Z,2.68
2022-12-01T15:03:53.595Z,2.64
2022-12-01T15:06:23.207Z,2.63
2022-12-01T15:12:00.519Z,2.57
2022-12-01T15:14:47.183Z,2.60
2022-12-01T15:17:37.161Z,2.54
2022-12-01T15:20:05.182Z,2.51
2022-12-01T15:22:33.704Z,2.56
2022-12-01T15:25:14.978Z,2.49
2022-12-01T15:27:43.189Z,2.47
2022-12-01T15:30:14.099Z,2.48
2022-12-01T15:32:45.821Z,2.45
2022-12-01T15:35:20.641Z,2.45
2022-12-01T15:37:47.702Z,2.38
2022-12-01T15:43:23.593Z,2.30
2022-12-01T15:45:58.827Z,2.25
2022-12-01T15:48:34.297Z,2.26
2022-12-01T15:51:09.296Z,2.27
2022-12-01T15:53:40.089Z,2.22
2022-12-01T15:56:09.950Z,2.18
2022-12-01T15:58:43.250Z,2.18
2022-12-01T16:01:20.933Z,2.18
2022-12-01T16:03:50.309Z,2.20
2022-12-01T16:06:17.899Z,2.16
2022-12-01T16:08:57.305Z,2.15
2022-12-01T16:11:24.068Z,2.14
2022-12-01T16:14:08.137Z,2.09
2022-12-01T16:16:34.691Z,2.10
2022-12-01T16:19:26.609Z,2.05
2022-12-01T16:22:03.319Z,2.10
2022-12-01T16:24:32.058Z,2.06
2022-12-01T16:27:04.840Z,2.07
2022-12-01T16:29:47.420Z,2.04
2022-12-01T16:32:21.763Z,2.04
2022-12-01T16:34:51.414Z,2.01
2022-12-01T16:37:18.470Z,2.01
2022-12-01T16:39:45.092Z,2.00
2022-12-01T16:42:14.410Z,1.94
2022-12-01T16:44:43.716Z,1.91
2022-12-01T16:47:20.552Z,1.90
2022-12-01T16:49:47.311Z,1.90
2022-12-01T16:55:01.131Z,1.92
2022-12-01T16:57:27.781Z,1.88
2022-12-01T16:59:54.294Z,1.87
2022-12-01T17:02:20.975Z,1.86
2022-12-01T17:04:47.887Z,1.88
2022-12-01T17:07:14.781Z,1.86
2022-12-01T17:09:41.285Z,1.84
2022-12-01T17:12:07.981Z,1.82
2022-12-01T17:14:35.767Z,1.83
2022-12-01T17:17:02.290Z,1.86
2022-12-01T17:19:28.830Z,1.84
2022-12-01T17:21:57.014Z,1.82
2022-12-01T17:24:23.864Z,1.79
2022-12-01T17:26:50.446Z,1.82
2022-12-01T17:29:17.012Z,1.82
2022-12-01T17:31:43.599Z,1.83
2022-12-01T17:34:10.220Z,1.81
2022-12-01T17:36:36.820Z,1.78
2022-12-01T17:39:03.605Z,1.76
2022-12-01T17:41:35.849Z,1.76
2022-12-01T17:44:04.001Z,1.72
2022-12-01T17:46:31.397Z,1.71
2022-12-01T17:48:59.329Z,1.69
2022-12-01T17:51:26.026Z,1.67
2022-12-01T17:53:53.902Z,1.57
2022-12-01T17:56:20.426Z,1.43
2022-12-01T17:58:49.352Z,1.32
2022-12-01T18:01:18.496Z,1.27
2022-12-01T18:03:45.738Z,1.27
2022-12-01T18:06:13.361Z,1.17
2022-12-01T18:08:40.958Z,1.18
2022-12-01T18:11:11.123Z,1.16
2022-12-01T18:13:39.476Z,1.14
2022-12-01T18:16:11.814Z,1.09
2022-12-01T18:18:38.771Z,1.09
2022-12-01T18:21:10.430Z,1.09
2022-12-01T18:23:38.506Z,1.09
2022-12-01T18:26:12.259Z,1.11
2022-12-01T18:28:42.187Z,1.11
2022-12-01T18:31:11.532Z,1.08
2022-12-01T18:33:40.389Z,1.08
2022-12-01T18:36:13.645Z,1.08
2022-12-01T18:38:40.870Z,1.09
2022-12-01T18:41:07.885Z,1.08
2022-12-01T18:43:34.477Z,1.06
2022-12-01T18:46:03.617Z,1.11
2022-12-01T18:48:30.698Z,1.07
2022-12-01T18:51:02.910Z,1.07
2022-12-01T18:53:29.550Z,1.11
2022-12-01T18:55:56.105Z,1.05
2022-12-01T18:58:22.843Z,1.04
2022-12-01T19:00:49.705Z,1.01
2022-12-01T19:03:16.416Z,1.01
2022-12-01T19:05:42.936Z,0.98
2022-12-01T19:08:09.519Z,0.99
2022-12-01T19:10:36.149Z,1.09
2022-12-01T19:13:02.692Z,1.10
2022-12-01T19:15:29.811Z,1.14
2022-12-01T19:17:56.429Z,1.15
2022-12-01T19:20:23.087Z,1.19
2022-12-01T19:22:49.821Z,1.16
2022-12-01T19:25:16.417Z,1.13
2022-12-01T19:27:42.929Z,1.22
2022-12-01T19:30:10.058Z,1.20
2022-12-01T19:32:36.704Z,1.16
2022-12-01T19:35:03.556Z,1.20
2022-12-01T19:37:30.093Z,1.23
2022-12-01T19:39:57.575Z,1.20
2022-12-01T19:42:26.139Z,1.17
2022-12-01T19:44:52.839Z,1.16
2022-12-01T19:47:22.459Z,1.10
2022-12-01T19:49:49.336Z,1.21
2022-12-01T19:52:16.085Z,1.21
2022-12-01T19:54:42.803Z,1.25
2022-12-01T19:57:09.363Z,1.27
2022-12-01T19:59:35.934Z,1.30
2022-12-01T20:02:02.740Z,1.21
2022-12-01T20:04:29.326Z,1.25
2022-12-01T20:06:55.842Z,1.12
2022-12-01T20:09:22.766Z,1.17
2022-12-01T20:11:49.307Z,1.06
2022-12-01T20:14:16.257Z,1.04
2022-12-01T20:16:42.802Z,1.02
2022-12-01T20:19:10.897Z,1.01
2022-12-01T20:21:44.541Z,1.00
2022-12-01T20:24:13.926Z,0.98
2022-12-01T20:26:43.569Z,0.95
2022-12-01T20:29:13.512Z,0.97
2022-12-01T20:31:41.740Z,0.97
2022-12-01T20:34:12.805Z,0.96
2022-12-01T20:36:41.049Z,0.97
2022-12-01T20:39:09.271Z,0.97
2022-12-01T20:41:36.698Z,0.99
2022-12-01T20:44:07.272Z,0.95
2022-12-01T20:46:35.129Z,0.97
2022-12-01T20:49:01.842Z,0.98
2022-12-01T20:51:28.509Z,0.97
2022-12-01T20:54:26.280Z,0.93
2022-12-01T20:56:41.984Z,0.90
2022-12-01T20:59:08.528Z,0.94
2022-12-01T21:01:35.595Z,0.88
2022-12-01T21:04:02.496Z,0.90
2022-12-01T21:06:29.273Z,0.90
2022-12-01T21:08:56.161Z,0.89
2022-12-01T21:11:42.984Z,0.88
2022-12-01T21:14:36.635Z,0.87
2022-12-01T21:17:29.465Z,0.87
2022-12-01T21:20:05.272Z,0.87
2022-12-01T21:22:31.965Z,0.86
2022-12-01T21:25:18.934Z,0.86
2022-12-01T21:27:47.225Z,0.85
2022-12-01T21:30:22.511Z,0.85
2022-12-01T21:32:49.577Z,0.82
2022-12-01T21:35:19.250Z,0.87
2022-12-01T21:37:47.216Z,0.83
2022-12-01T21:40:20.314Z,0.83
2022-12-01T21:42:47.177Z,0.85
2022-12-01T21:45:26.530Z,0.81
2022-12-01T21:47:57.266Z,0.85
2022-12-01T21:50:25.331Z,0.84
2022-12-01T21:52:51.926Z,0.81
2022-12-01T21:55:18.382Z,0.81
2022-12-01T21:57:47.741Z,0.81
2022-12-01T22:00:29.205Z,0.82
2022-12-01T22:03:01.338Z,0.79
2022-12-01T22:05:35.181Z,0.82
2022-12-01T22:08:13.690Z,0.79
2022-12-01T22:10:52.621Z,0.77
2022-12-01T22:13:23.245Z,0.80
2022-12-01T22:15:50.566Z,0.77
2022-12-01T22:18:23.946Z,0.76
2022-12-01T22:20:50.497Z,0.75
2022-12-01T22:23:18.809Z,0.77
2022-12-01T22:25:46.452Z,0.79
2022-12-01T22:28:21.911Z,0.79
2022-12-01T22:30:48.837Z,0.76
2022-12-01T22:33:23.912Z,0.79
2022-12-01T22:35:52.520Z,0.77
2022-12-01T22:38:24.987Z,0.75
2022-12-01T22:40:55.872Z,0.78
2022-12-01T22:43:50.706Z,0.79
2022-12-01T22:46:27.769Z,0.80
2022-12-01T22:48:57.222Z,0.83
2022-12-01T22:51:28.415Z,0.79
2022-12-01T22:54:28.702Z,0.82
2022-12-01T22:57:16.712Z,0.80
2022-12-01T22:59:44.671Z,0.78
2022-12-01T23:02:20.604Z,0.76
2022-12-01T23:04:48.997Z,0.78
2022-12-01T23:07:35.296Z,0.82
2022-12-01T23:10:20.510Z,0.76
2022-12-01T23:12:49.483Z,0.75
2022-12-01T23:15:32.851Z,0.79
2022-12-01T23:18:16.078Z,0.75
2022-12-01T23:20:44.167Z,0.79
2022-12-01T23:23:16.614Z,0.77
2022-12-01T23:25:44.752Z,0.78
2022-12-01T23:28:13.007Z,0.76
2022-12-01T23:30:42.346Z,0.77
2022-12-01T23:33:08.860Z,0.73
2022-12-01T23:35:41.438Z,0.73
2022-12-01T23:38:31.070Z,0.72
2022-12-01T23:41:01.176Z,0.74
2022-12-01T23:43:31.751Z,0.75
2022-12-01T23:46:04.657Z,0.75
2022-12-01T23:48:37.911Z,0.74
2022-12-01T23:51:10.024Z,0.74
2022-12-01T23:53:39.315Z,0.73
2022-12-01T23:56:10.226Z,0.75
2022-12-01T23:58:36.746Z,0.70
